Time;durP1;ratioP1;P1;durP2;ratioP2;P2;SDS_P1;SDS_P2;PMS_P1;PMS_P2;Temp;Humidity;BMP_temperature;BMP_pressure;BME280_temperature;BME280_humidity;BME280_pressure;Samples;Min_cycle;Max_cycle;Signal;HPM_P1;HPM_P2
2021/09/08 00:01:59;;;;;;;15.20;4.40;;;;;;;15.20;61.14;102071.55;1684394;84;21530;-61
2021/09/08 00:04:26;;;;;;;15.70;4.50;;;;;;;15.21;60.95;102067.92;1684504;85;21059;-61
2021/09/08 00:06:53;;;;;;;18.67;4.72;;;;;;;15.28;61.02;102070.81;1684185;84;21149;-63
2021/09/08 00:09:20;;;;;;;23.15;5.17;;;;;;;15.33;60.54;102071.54;1683521;84;21015;-61
2021/09/08 00:11:48;;;;;;;17.17;4.83;;;;;;;15.35;60.42;102072.37;1682462;85;21117;-60
2021/09/08 00:14:15;;;;;;;13.98;4.95;;;;;;;15.37;60.43;102078.63;1684304;84;21463;-63
2021/09/08 00:16:43;;;;;;;22.25;4.58;;;;;;;15.46;60.25;102074.25;1683244;84;21492;-61
2021/09/08 00:19:11;;;;;;;14.33;4.42;;;;;;;15.58;59.23;102082.85;1685081;83;23205;-61
2021/09/08 00:24:41;;;;;;;15.68;4.42;;;;;;;15.69;59.01;102083.38;1668267;84;21064;-64
2021/09/08 00:27:17;;;;;;;16.97;3.95;;;;;;;15.72;59.30;102084.61;1682062;84;21058;-63
2021/09/08 00:29:45;;;;;;;15.15;3.98;;;;;;;15.68;59.31;102079.36;1678959;84;21572;-63
2021/09/08 00:32:14;;;;;;;17.55;4.33;;;;;;;15.66;59.45;102083.94;1683778;84;21619;-61
2021/09/08 00:34:42;;;;;;;17.45;4.78;;;;;;;15.66;59.82;102079.43;1667502;84;21108;-60
2021/09/08 00:37:09;;;;;;;16.50;4.55;;;;;;;15.69;59.66;102077.97;1669455;84;21066;-60
2021/09/08 00:42:40;;;;;;;13.05;4.97;;;;;;;15.73;59.22;102080.10;1684181;85;21074;-59
2021/09/08 00:45:17;;;;;;;20.32;4.65;;;;;;;15.81;59.08;102082.53;1683998;84;21521;-58
2021/09/08 00:47:44;;;;;;;19.85;4.92;;;;;;;15.83;59.09;102080.66;1684611;82;21586;-61
2021/09/08 00:52:46;;;;;;;37.42;5.08;;;;;;;15.83;58.76;102086.93;1712917;82;21100;-59
2021/09/08 01:00:26;;;;;;;15.35;4.65;;;;;;;16.08;57.46;102081.14;1682578;83;22261;-60
2021/09/08 01:02:55;;;;;;;17.60;4.75;;;;;;;16.16;57.43;102080.38;1684102;83;21533;-59
2021/09/08 01:05:28;;;;;;;15.75;4.33;;;;;;;16.16;57.51;102083.98;1713027;82;21122;-59
2021/09/08 01:13:39;;;;;;;16.10;4.12;;;;;;;16.03;57.43;102075.44;1713188;82;21096;-61
2021/09/08 01:16:06;;;;;;;20.30;5.58;;;;;;;16.04;57.15;102077.20;1712370;82;21107;-59
2021/09/08 01:18:36;;;;;;;18.75;4.55;;;;;;;16.07;57.04;102078.03;1713289;82;21065;-61
2021/09/08 01:21:11;;;;;;;16.60;3.85;;;;;;;16.06;56.64;102078.97;1713369;83;21073;-61
2021/09/08 01:23:38;;;;;;;23.12;4.60;;;;;;;16.11;57.07;102079.67;1650659;85;21840;-59
2021/09/08 01:26:14;;;;;;;31.65;6.55;;;;;;;16.13;56.81;102077.79;1712660;83;21108;-60
2021/09/08 01:28:41;;;;;;;12.05;5.45;;;;;;;16.13;56.86;102080.49;1712901;82;21086;-60
2021/09/08 01:31:27;;;;;;;21.17;6.00;;;;;;;16.02;57.11;102081.76;1711242;82;21146;-60
2021/09/08 01:33:54;;;;;;;20.05;5.58;;;;;;;16.00;57.79;102074.66;1703079;82;21164;-58
2021/09/08 01:36:42;;;;;;;16.95;4.65;;;;;;;15.99;57.85;102073.77;1712804;82;21913;-61
2021/09/08 01:44:25;;;;;;;18.62;4.90;;;;;;;15.89;58.40;102065.09;1699931;82;21551;-60
2021/09/08 01:46:55;;;;;;;17.27;4.37;;;;;;;15.85;58.89;102066.12;1712627;82;21110;-60
2021/09/08 01:52:25;;;;;;;14.03;5.47;;;;;;;15.76;59.45;102059.22;1671684;83;20965;-59
2021/09/08 01:54:51;;;;;;;20.08;4.65;;;;;;;15.74;59.57;102055.69;1688085;85;21125;-59
2021/09/08 02:00:05;;;;;;;18.35;3.95;;;;;;;15.84;59.41;102055.38;1688032;83;21064;-60
2021/09/08 02:10:33;;;;;;;16.10;4.55;;;;;;;15.92;57.71;102050.59;1690347;84;21115;-58
2021/09/08 02:13:04;;;;;;;17.80;4.35;;;;;;;15.92;57.55;102054.65;1693140;83;21071;-58
2021/09/08 02:15:33;;;;;;;18.48;5.25;;;;;;;15.88;58.11;102040.80;1693386;83;20994;-58
2021/09/08 02:18:13;;;;;;;16.02;5.05;;;;;;;15.85;57.99;102047.67;1693616;83;21020;-58
2021/09/08 02:20:40;;;;;;;16.20;4.70;;;;;;;15.83;57.20;102053.62;1676910;84;21064;-60
2021/09/08 02:23:07;;;;;;;22.37;4.95;;;;;;;15.82;57.32;102050.02;1692955;84;21793;-58
2021/09/08 02:33:20;;;;;;;22.50;4.87;;;;;;;15.76;57.52;102049.76;1693037;83;21038;-59
2021/09/08 02:35:47;;;;;;;17.65;4.33;;;;;;;15.75;57.97;102043.94;1693111;83;21062;-59
2021/09/08 02:40:42;;;;;;;16.70;4.95;;;;;;;15.75;57.01;102046.64;1690111;84;21561;-59
2021/09/08 02:43:51;;;;;;;22.65;6.17;;;;;;;15.73;57.77;102045.81;1691505;83;21060;-59
2021/09/08 02:46:18;;;;;;;12.28;4.35;;;;;;;15.63;58.08;102044.39;1665219;86;21493;-57
2021/09/08 02:48:57;;;;;;;15.93;4.50;;;;;;;15.52;58.87;102047.94;1699728;81;21078;-58
2021/09/08 02:51:24;;;;;;;13.55;4.70;;;;;;;15.44;59.42;102045.05;1683641;84;21064;-59
2021/09/08 02:54:07;;;;;;;18.70;4.25;;;;;;;15.40;59.31;102046.55;1683519;84;21154;-57
2021/09/08 03:01:41;;;;;;;21.17;5.60;;;;;;;15.38;59.10;102038.52;1683350;85;21130;-59
2021/09/08 03:04:08;;;;;;;15.95;4.08;;;;;;;15.40;59.16;102039.79;1683764;84;21463;-58
2021/09/08 03:09:08;;;;;;;21.95;4.10;;;;;;;15.43;59.04;102036.52;1681726;84;21088;-60
2021/09/08 03:11:34;;;;;;;15.25;4.35;;;;;;;15.46;58.80;102043.17;1668396;84;21066;-60
2021/09/08 03:14:02;;;;;;;20.37;4.90;;;;;;;15.50;58.20;102040.35;1683858;84;21505;-59
2021/09/08 03:16:29;;;;;;;19.98;4.60;;;;;;;15.52;57.30;102046.58;1683807;85;21110;-59
2021/09/08 03:19:12;;;;;;;23.85;5.83;;;;;;;15.51;57.81;102049.77;1683850;84;22201;-59
2021/09/08 03:21:54;;;;;;;16.32;4.10;;;;;;;15.47;59.36;102050.34;1683775;84;21047;-59
2021/09/08 03:24:21;;;;;;;19.73;4.75;;;;;;;15.38;59.22;102052.02;1683549;84;21071;-58
2021/09/08 03:29:52;;;;;;;20.70;5.47;;;;;;;15.38;60.25;102055.17;1683847;84;21054;-58
2021/09/08 03:32:56;;;;;;;21.97;5.37;;;;;;;15.34;60.99;102051.69;1676121;84;21474;-60
2021/09/08 03:35:22;;;;;;;26.65;7.42;;;;;;;15.27;61.83;102055.55;1683826;84;21088;-61
2021/09/08 03:37:49;;;;;;;25.57;6.22;;;;;;;15.16;63.07;102059.50;1683784;83;21124;-62
2021/09/08 03:40:15;;;;;;;24.87;6.00;;;;;;;15.12;63.88;102059.17;1682431;84;21046;-61
2021/09/08 03:45:45;;;;;;;24.02;7.67;;;;;;;15.05;64.99;102067.07;1683411;85;21139;-63
2021/09/08 03:48:12;;;;;;;19.65;5.40;;;;;;;15.00;64.31;102063.16;1679453;83;21700;-63
2021/09/08 03:53:42;;;;;;;31.45;9.50;;;;;;;14.99;64.50;102067.28;1712191;82;21100;-61
2021/09/08 03:56:12;;;;;;;31.68;8.23;;;;;;;14.97;64.89;102062.39;1712585;82;21539;-60
2021/09/08 03:58:39;;;;;;;31.50;6.92;;;;;;;14.98;65.49;102072.27;1711539;82;21846;-58
2021/09/08 04:01:06;;;;;;;25.48;8.40;;;;;;;14.98;65.80;102070.43;1712522;83;21055;-59
2021/09/08 04:03:33;;;;;;;29.40;8.68;;;;;;;14.99;65.74;102069.98;1713082;82;21095;-58
2021/09/08 04:06:08;;;;;;;17.70;6.95;;;;;;;15.01;65.70;102066.27;1713336;82;21112;-58
2021/09/08 04:08:36;;;;;;;26.12;9.20;;;;;;;15.01;65.81;102070.81;1714979;82;21050;-63
2021/09/08 04:11:44;;;;;;;28.77;8.83;;;;;;;15.02;65.64;102069.88;1727073;82;21808;-62
2021/09/08 04:14:20;;;;;;;25.65;7.65;;;;;;;15.03;65.29;102068.94;1712385;83;21084;-63
2021/09/08 04:16:46;;;;;;;22.22;7.50;;;;;;;15.13;64.99;102069.52;1712602;82;21555;-63
2021/09/08 04:19:14;;;;;;;38.92;7.58;;;;;;;15.11;64.91;102070.91;1712686;82;21058;-59
2021/09/08 04:21:49;;;;;;;38.95;13.68;;;;;;;15.08;64.98;102081.81;1712630;82;21068;-58
2021/09/08 04:24:17;;;;;;;40.10;10.20;;;;;;;15.04;65.39;102081.51;1713024;82;21527;-59
2021/09/08 04:26:52;;;;;;;30.75;10.08;;;;;;;15.06;65.30;102084.17;1711439;82;21112;-59
2021/09/08 04:31:50;;;;;;;38.25;7.67;;;;;;;15.17;65.34;102084.23;1713017;82;21059;-63
2021/09/08 04:34:17;;;;;;;37.95;8.40;;;;;;;15.20;65.22;102079.66;1713030;82;21044;-63
2021/09/08 04:36:46;;;;;;;30.75;8.73;;;;;;;15.25;64.91;102073.63;1713124;83;21140;-64
2021/09/08 04:41:54;;;;;;;37.40;8.43;;;;;;;15.46;64.13;102085.52;1716563;82;21088;-60
2021/09/08 04:46:50;;;;;;;36.00;8.85;;;;;;;15.73;63.00;102095.84;1712763;83;21052;-60
2021/09/08 04:49:17;;;;;;;28.42;7.80;;;;;;;15.82;62.57;102097.83;1714156;82;21457;-61
2021/09/08 04:51:46;;;;;;;40.85;9.28;;;;;;;15.92;62.22;102103.82;1717027;82;21034;-63
2021/09/08 04:56:52;;;;;;;43.08;10.50;;;;;;;16.15;61.20;102098.91;1690437;83;21062;-60
2021/09/08 04:59:19;;;;;;;47.48;11.80;;;;;;;16.23;60.73;102102.69;1688922;84;21137;-60
2021/09/08 05:04:18;;;;;;;33.75;10.63;;;;;;;16.50;59.75;102112.94;1716817;83;21101;-63
2021/09/08 05:12:20;;;;;;;26.48;12.28;;;;;;;16.94;58.12;102108.05;1692620;81;21089;-62
2021/09/08 05:14:47;;;;;;;33.95;10.00;;;;;;;17.01;57.53;102114.15;1687435;83;21708;-61
2021/09/08 05:22:38;;;;;;;31.37;10.00;;;;;;;17.27;57.73;102109.48;1688005;83;21074;-62
2021/09/08 05:25:07;;;;;;;25.77;8.45;;;;;;;17.47;57.30;102111.37;1688106;83;21173;-62
2021/09/08 05:27:34;;;;;;;26.10;8.40;;;;;;;17.65;56.53;102116.47;1704880;83;21485;-64
2021/09/08 05:30:01;;;;;;;30.62;8.88;;;;;;;17.81;55.88;102109.89;1711071;83;21492;-62
2021/09/08 05:32:28;;;;;;;26.93;9.60;;;;;;;17.95;55.45;102114.70;1692548;83;21025;-64
2021/09/08 05:34:56;;;;;;;21.97;8.38;;;;;;;18.02;55.12;102116.24;1694268;83;21080;-62
2021/09/08 05:45:10;;;;;;;30.55;7.78;;;;;;;18.08;57.01;102101.48;1693218;83;21119;-59
2021/09/08 05:50:22;;;;;;;66.33;8.78;;;;;;;18.58;54.65;102109.61;1707780;81;21072;-57
2021/09/08 05:52:50;;;;;;;36.75;8.15;;;;;;;18.73;54.22;102109.84;1713129;81;21061;-61
2021/09/08 05:55:17;;;;;;;29.85;7.22;;;;;;;18.93;54.12;102102.56;1708764;82;21109;-62
2021/09/08 05:57:55;;;;;;;16.25;5.05;;;;;;;19.15;54.18;102101.94;1711181;82;21111;-63
2021/09/08 06:00:28;;;;;;;18.02;4.75;;;;;;;19.35;54.90;102104.13;1713903;82;21085;-62
2021/09/08 06:05:57;;;;;;;11.48;4.60;;;;;;;19.86;54.18;102114.22;1689239;82;21140;-63
2021/09/08 06:08:25;;;;;;;13.20;4.10;;;;;;;20.61;53.04;102116.08;1706605;82;21084;-65
2021/09/08 06:13:21;;;;;;;14.85;4.72;;;;;;;21.91;48.64;102117.70;1683516;83;21073;-60
2021/09/08 06:15:50;;;;;;;16.87;5.50;;;;;;;22.33;47.72;102129.66;1711278;82;21005;-62
2021/09/08 06:18:18;;;;;;;15.48;4.85;;;;;;;22.73;46.96;102125.37;1710951;83;21127;-63
2021/09/08 06:20:45;;;;;;;13.93;4.55;;;;;;;22.86;46.54;102141.34;1705667;82;21059;-65
2021/09/08 06:23:12;;;;;;;17.57;4.78;;;;;;;22.50;45.83;102137.78;1709517;82;21100;-64
2021/09/08 06:25:55;;;;;;;7.03;4.30;;;;;;;22.00;46.97;102132.17;1696011;82;21607;-62
2021/09/08 06:28:23;;;;;;;13.30;4.72;;;;;;;21.61;48.01;102118.59;1704711;82;21100;-64
2021/09/08 06:30:51;;;;;;;15.45;4.60;;;;;;;21.27;49.04;102123.31;1697580;83;21604;-60
2021/09/08 06:33:17;;;;;;;13.83;4.65;;;;;;;21.12;49.41;102126.45;1695335;83;21091;-60
2021/09/08 06:35:45;;;;;;;11.40;4.40;;;;;;;20.90;49.75;102114.06;1697862;82;21186;-59
2021/09/08 06:38:12;;;;;;;13.83;4.75;;;;;;;20.73;50.33;102123.17;1700625;83;21268;-60
2021/09/08 06:40:39;;;;;;;9.33;4.50;;;;;;;20.64;50.58;102118.23;1700431;82;21616;-60
2021/09/08 06:43:07;;;;;;;13.48;5.28;;;;;;;20.51;50.44;102128.46;1706704;83;21828;-63
2021/09/08 06:45:34;;;;;;;11.75;4.85;;;;;;;20.33;51.15;102122.16;1705383;83;21084;-64
2021/09/08 06:51:12;;;;;;;8.63;4.35;;;;;;;20.19;51.36;102122.92;1694692;83;21489;-61
2021/09/08 06:53:44;;;;;;;8.93;4.42;;;;;;;20.07;51.84;102110.84;1715941;83;21016;-61
2021/09/08 06:56:11;;;;;;;11.90;4.47;;;;;;;19.93;51.99;102119.76;1684585;84;21007;-64
2021/09/08 06:58:38;;;;;;;14.98;4.40;;;;;;;19.76;52.68;102122.84;1711556;83;21080;-65
2021/09/08 07:01:08;;;;;;;12.65;4.55;;;;;;;19.68;52.94;102118.30;1705022;83;21087;-64
2021/09/08 07:06:16;;;;;;;12.50;4.58;;;;;;;19.63;53.08;102121.75;1694558;84;20996;-64
2021/09/08 07:08:43;;;;;;;13.68;5.08;;;;;;;19.64;52.88;102113.98;1669762;84;21659;-62
2021/09/08 07:11:09;;;;;;;14.28;5.42;;;;;;;19.60;52.82;102119.19;1709261;83;21082;-59
2021/09/08 07:13:38;;;;;;;8.35;4.50;;;;;;;19.64;52.52;102111.27;1717845;82;21150;-61
2021/09/08 07:37:05;;;;;;;17.35;4.95;;;;;;;19.68;51.67;102123.73;1694007;84;21107;-60
2021/09/08 07:39:33;;;;;;;12.75;4.60;;;;;;;19.65;51.47;102128.45;1682522;84;21551;-61
2021/09/08 07:42:00;;;;;;;11.43;5.25;;;;;;;19.63;51.43;102135.34;1689473;84;21071;-60
2021/09/08 07:47:17;;;;;;;15.23;4.92;;;;;;;19.63;50.78;102133.98;1709883;83;21060;-59
2021/09/08 07:49:45;;;;;;;16.45;5.05;;;;;;;19.63;50.54;102123.11;1691072;82;21038;-60
2021/09/08 07:52:13;;;;;;;11.83;4.45;;;;;;;19.65;50.03;102129.81;1717305;83;21435;-66
2021/09/08 07:54:41;;;;;;;19.95;5.28;;;;;;;19.73;49.65;102124.38;1692759;84;21071;-60
2021/09/08 07:57:08;;;;;;;26.02;5.42;;;;;;;19.76;49.16;102128.29;1694577;83;21071;-62
2021/09/08 07:59:35;;;;;;;20.20;6.05;;;;;;;19.76;49.34;102121.98;1692875;83;21542;-59
2021/09/08 08:02:02;;;;;;;29.57;5.20;;;;;;;19.83;48.59;102125.27;1710700;82;21477;-63
2021/09/08 08:10:15;;;;;;;31.87;4.92;;;;;;;19.93;47.89;102127.92;1706513;83;21126;-60
2021/09/08 08:12:43;;;;;;;21.65;4.90;;;;;;;20.00;48.17;102146.18;1708387;82;21563;-62
2021/09/08 08:18:15;;;;;;;14.85;4.72;;;;;;;20.15;47.94;102132.22;1685973;84;21982;-61
2021/09/08 08:20:51;;;;;;;10.88;4.05;;;;;;;20.22;47.75;102139.09;1680477;84;21095;-61
2021/09/08 08:23:21;;;;;;;12.33;4.15;;;;;;;20.30;47.45;102141.40;1682927;84;21095;-61
2021/09/08 08:25:48;;;;;;;8.48;4.15;;;;;;;20.33;46.29;102144.85;1670859;85;21514;-60
2021/09/08 08:28:17;;;;;;;16.52;4.95;;;;;;;20.33;46.24;102135.31;1676329;85;21123;-59
2021/09/08 08:30:44;;;;;;;10.50;3.85;;;;;;;20.31;46.56;102131.80;1677452;83;21600;-60
2021/09/08 08:33:11;;;;;;;14.40;4.30;;;;;;;20.29;46.68;102135.09;1662925;84;21649;-59
2021/09/08 08:43:35;;;;;;;11.80;3.58;;;;;;;20.35;45.27;102135.71;1675797;85;21128;-59
2021/09/08 08:46:02;;;;;;;12.68;3.58;;;;;;;20.35;44.81;102131.16;1709172;82;21040;-58
2021/09/08 08:53:40;;;;;;;13.70;4.00;;;;;;;20.45;44.73;102120.64;1706524;82;21068;-59
2021/09/08 08:56:08;;;;;;;13.65;3.72;;;;;;;20.53;45.06;102125.64;1707871;83;21543;-61
2021/09/08 08:58:35;;;;;;;9.75;3.72;;;;;;;20.58;44.42;102121.70;1707529;83;21068;-60
2021/09/08 09:01:22;;;;;;;9.60;3.42;;;;;;;20.60;44.42;102114.31;1696590;83;21337;-60
2021/09/08 09:04:04;;;;;;;9.50;3.60;;;;;;;20.63;44.94;102121.91;1707021;82;21651;-57
2021/09/08 09:06:32;;;;;;;10.43;3.55;;;;;;;20.68;43.92;102118.48;1704597;82;21554;-60
2021/09/08 09:09:11;;;;;;;8.20;3.33;;;;;;;20.72;42.21;102113.24;1702987;82;21148;-59
2021/09/08 09:11:41;;;;;;;18.35;3.10;;;;;;;20.72;43.02;102111.88;1673637;84;21489;-59
2021/09/08 09:14:09;;;;;;;11.03;3.20;;;;;;;20.79;41.43;102111.92;1699641;83;21533;-58
2021/09/08 09:16:39;;;;;;;15.00;3.50;;;;;;;20.85;41.53;102103.41;1708689;83;21123;-59
2021/09/08 09:19:08;;;;;;;6.10;3.22;;;;;;;20.85;41.75;102106.64;1706281;83;21037;-60
2021/09/08 09:21:35;;;;;;;14.20;2.85;;;;;;;20.88;41.03;102111.41;1703143;82;21080;-60
2021/09/08 09:24:08;;;;;;;6.25;2.92;;;;;;;20.86;41.23;102119.30;1712284;82;21060;-59
2021/09/08 09:26:39;;;;;;;7.05;2.58;;;;;;;20.80;41.10;102104.17;1701806;83;21064;-58
2021/09/08 09:29:13;;;;;;;10.30;2.85;;;;;;;20.76;39.79;102101.20;1706799;82;21564;-58
2021/09/08 09:32:07;;;;;;;12.03;3.10;;;;;;;20.78;40.09;102095.64;1704911;82;21032;-58
2021/09/08 09:34:35;;;;;;;12.25;3.62;;;;;;;20.83;40.60;102098.54;1702495;83;21137;-62
2021/09/08 09:39:38;;;;;;;;;;;;;;;20.83;39.26;102094.45;1701625;83;21040;-58
2021/09/08 09:42:11;;;;;;;12.50;2.90;;;;;;;20.76;38.59;102097.11;1703994;83;21066;-57
2021/09/08 09:44:40;;;;;;;20.57;2.92;;;;;;;20.78;39.20;102104.71;1705214;83;21020;-58
2021/09/08 09:47:09;;;;;;;13.78;2.87;;;;;;;20.79;39.03;102098.30;1697243;83;21493;-59
2021/09/08 09:55:12;;;;;;;9.83;2.75;;;;;;;20.54;39.04;102102.41;1706890;82;21906;-59
2021/09/08 09:57:39;;;;;;;10.43;2.85;;;;;;;20.52;37.02;102104.34;1708826;82;21092;-60
2021/09/08 10:07:51;;;;;;;7.25;2.60;;;;;;;20.76;36.92;102087.56;1713994;82;21140;-60
2021/09/08 10:13:33;;;;;;;5.83;2.30;;;;;;;20.82;35.58;102091.83;1706465;82;21387;-59
2021/09/08 10:16:08;;;;;;;7.58;2.77;;;;;;;20.80;35.02;102081.00;1662520;83;20958;-58
2021/09/08 10:18:35;;;;;;;5.03;2.05;;;;;;;20.74;36.32;102084.05;1701041;82;21060;-56
2021/09/08 10:21:05;;;;;;;8.95;2.40;;;;;;;20.77;35.63;102078.42;1705883;82;21487;-58
2021/09/08 10:23:56;;;;;;;9.38;2.50;;;;;;;20.80;34.95;102085.09;1703412;82;21079;-58
2021/09/08 10:26:28;;;;;;;9.33;3.00;;;;;;;20.76;34.40;102086.20;1624835;83;21596;-59
2021/09/08 10:29:06;;;;;;;4.97;2.70;;;;;;;20.74;34.89;102082.69;1704136;83;21057;-58
2021/09/08 10:31:37;;;;;;;4.40;2.22;;;;;;;20.77;34.98;102085.23;1707495;83;21625;-57
2021/09/08 10:34:05;;;;;;;4.95;2.58;;;;;;;20.73;34.57;102092.70;1696362;83;21140;-58
2021/09/08 10:36:34;;;;;;;5.85;2.80;;;;;;;20.70;34.22;102094.73;1677038;83;21529;-59
2021/09/08 10:39:21;;;;;;;7.45;2.80;;;;;;;20.68;33.25;102080.33;1703040;82;21168;-57
2021/09/08 10:41:55;;;;;;;9.68;3.05;;;;;;;20.60;34.15;102089.80;1703665;83;21780;-61
2021/09/08 10:44:52;;;;;;;4.47;2.50;;;;;;;20.55;35.22;102077.39;1706870;83;21677;-58
2021/09/08 10:47:36;;;;;;;7.75;2.50;;;;;;;20.53;34.99;102071.15;1699895;83;21151;-57
2021/09/08 10:52:53;;;;;;;4.60;2.40;;;;;;;20.56;34.63;102053.30;1704458;82;21146;-60
2021/09/08 10:55:20;;;;;;;6.28;2.85;;;;;;;20.60;34.68;102062.55;1704627;82;21117;-59
2021/09/08 10:57:52;;;;;;;14.00;2.40;;;;;;;20.59;34.65;102055.34;1706666;82;20988;-61
2021/09/08 11:00:48;;;;;;;4.33;2.45;;;;;;;20.63;34.90;102052.44;1699886;82;21199;-60
2021/09/08 11:03:20;;;;;;;5.92;2.10;;;;;;;20.66;34.23;102054.98;1704933;83;22183;-57
2021/09/08 11:05:58;;;;;;;6.08;2.85;;;;;;;20.65;34.86;102051.86;1709806;83;21575;-57
2021/09/08 11:08:32;;;;;;;7.78;2.37;;;;;;;20.73;34.66;102046.38;1704144;82;21053;-56
2021/09/08 11:11:13;;;;;;;5.85;2.40;;;;;;;20.80;34.86;102037.39;1700252;83;21560;-57
2021/09/08 11:13:42;;;;;;;9.83;2.05;;;;;;;20.86;35.01;102033.44;1687157;83;21112;-59
2021/09/08 11:16:27;;;;;;;6.58;2.17;;;;;;;20.89;34.91;102039.60;1699299;83;21108;-59
2021/09/08 11:19:08;;;;;;;5.08;2.77;;;;;;;20.93;35.03;102036.69;1701145;83;21095;-60
2021/09/08 11:27:08;;;;;;;3.52;2.10;;;;;;;20.89;34.12;102032.78;1701785;83;21130;-60
2021/09/08 11:29:36;;;;;;;3.67;2.10;;;;;;;20.83;34.01;102035.84;1699999;82;21874;-60
2021/09/08 11:32:04;;;;;;;7.22;1.95;;;;;;;20.79;33.71;102031.52;1697537;82;21118;-59
2021/09/08 11:37:19;;;;;;;4.55;1.90;;;;;;;20.83;34.02;102033.13;1703773;82;21136;-60
2021/09/08 11:39:46;;;;;;;7.92;2.22;;;;;;;20.85;34.41;102028.96;1704461;82;21687;-58
2021/09/08 11:42:15;;;;;;;8.20;2.08;;;;;;;20.88;34.15;102031.00;1712912;82;21551;-57
2021/09/08 11:47:16;;;;;;;8.65;2.65;;;;;;;20.94;34.62;102024.31;1717155;82;21068;-56
2021/09/08 11:49:44;;;;;;;5.37;2.22;;;;;;;20.99;35.22;102025.42;1707647;82;21044;-57
2021/09/08 11:52:16;;;;;;;4.80;1.95;;;;;;;21.00;35.01;102016.27;1685532;83;21836;-57
2021/09/08 11:54:48;;;;;;;2.70;2.08;;;;;;;21.01;34.58;102013.47;1670786;85;21073;-60
2021/09/08 11:57:23;;;;;;;11.10;2.05;;;;;;;21.11;34.67;102017.89;1670002;85;21936;-59
2021/09/08 12:00:02;;;;;;;3.42;1.87;;;;;;;21.16;34.39;102022.57;1670312;85;21700;-60
2021/09/08 12:02:42;;;;;;;15.25;2.98;;;;;;;21.13;33.90;102018.67;1672802;85;21143;-59
2021/09/08 12:10:20;;;;;;;5.50;2.25;;;;;;;20.98;34.73;102000.48;1675745;85;21537;-56
2021/09/08 12:15:39;;;;;;;2.60;1.75;;;;;;;20.99;34.33;101992.70;1670833;85;21088;-58
2021/09/08 12:18:18;;;;;;;6.97;1.98;;;;;;;21.00;34.81;101988.53;1634099;85;21719;-58
2021/09/08 12:20:47;;;;;;;7.03;2.15;;;;;;;21.04;34.28;101991.47;1676564;85;21592;-60
2021/09/08 12:23:29;;;;;;;9.23;1.92;;;;;;;21.07;33.59;101984.93;1675477;85;21167;-59
2021/09/08 12:26:11;;;;;;;3.08;1.77;;;;;;;21.08;33.41;101988.05;1678303;85;21045;-60
2021/09/08 12:28:38;;;;;;;4.72;2.05;;;;;;;21.04;33.99;101978.30;1670523;85;21485;-59
2021/09/08 12:31:20;;;;;;;3.00;2.00;;;;;;;21.00;34.25;101979.46;1621916;85;21573;-61
2021/09/08 12:33:59;;;;;;;6.80;2.35;;;;;;;20.99;33.92;101981.30;1646037;84;21083;-61
2021/09/08 12:36:26;;;;;;;5.97;2.40;;;;;;;20.99;34.25;101970.89;1672045;85;20992;-57
2021/09/08 12:38:54;;;;;;;7.22;2.20;;;;;;;20.95;34.59;101962.52;1637973;85;21105;-58
2021/09/08 12:41:31;;;;;;;6.22;1.90;;;;;;;20.89;34.09;101970.09;1672020;85;21092;-58
2021/09/08 12:46:51;;;;;;;6.72;1.70;;;;;;;20.90;33.69;101964.14;1651014;86;21064;-58
2021/09/08 12:49:31;;;;;;;7.25;2.35;;;;;;;20.91;33.52;101955.49;1671388;85;21652;-60
2021/09/08 12:51:58;;;;;;;5.83;2.20;;;;;;;20.95;34.19;101955.70;1671906;83;21565;-58
2021/09/08 12:57:09;;;;;;;3.43;2.00;;;;;;;21.11;34.01;101954.27;1681738;83;21125;-59
2021/09/08 13:07:38;;;;;;;8.60;2.00;;;;;;;21.25;33.12;101946.14;1674140;83;21127;-62
2021/09/08 13:10:08;;;;;;;6.30;2.05;;;;;;;21.22;32.26;101944.08;1691309;83;21678;-59
2021/09/08 13:12:35;;;;;;;3.70;1.85;;;;;;;21.21;32.71;101939.09;1636690;86;21088;-59
2021/09/08 13:15:05;;;;;;;8.58;1.85;;;;;;;21.20;32.58;101940.06;1686425;84;22261;-59
2021/09/08 13:17:33;;;;;;;9.40;2.00;;;;;;;21.21;32.73;101933.64;1675561;83;21000;-60
2021/09/08 13:27:55;;;;;;;5.90;1.90;;;;;;;21.45;32.79;101932.61;1685064;83;21423;-58
2021/09/08 13:32:54;;;;;;;3.65;1.85;;;;;;;21.41;32.28;101937.88;1688020;83;21435;-58
2021/09/08 13:38:39;;;;;;;7.50;2.00;;;;;;;21.41;33.02;101928.33;1687203;83;21137;-61
2021/09/08 13:40:53;;;;;;;3.67;1.67;;;;;;;21.41;32.78;101921.51;1686966;83;21139;-58
2021/09/08 13:43:20;;;;;;;6.17;1.75;;;;;;;21.41;32.77;101921.51;1686719;83;21064;-59
2021/09/08 13:45:48;;;;;;;5.05;2.02;;;;;;;21.43;32.41;101911.37;1687050;83;21166;-61
2021/09/08 13:48:21;;;;;;;3.87;1.85;;;;;;;21.38;32.31;101913.52;1689928;83;21186;-59
2021/09/08 13:50:50;;;;;;;11.33;2.50;;;;;;;21.38;32.46;101902.61;1685331;83;21058;-58
2021/09/08 13:53:18;;;;;;;11.03;2.10;;;;;;;21.36;32.61;101900.47;1696623;83;21115;-61
2021/09/08 13:55:45;;;;;;;3.77;1.77;;;;;;;21.39;32.79;101903.47;1701436;82;21112;-59
2021/09/08 13:58:14;;;;;;;5.87;2.77;;;;;;;21.41;32.54;101896.95;1691418;83;21083;-60
2021/09/08 14:00:41;;;;;;;2.17;1.62;;;;;;;21.47;32.47;101894.34;1675840;85;21112;-59
2021/09/08 14:03:11;;;;;;;4.70;1.65;;;;;;;21.49;32.44;101890.13;1671708;83;21058;-61
2021/09/08 14:05:59;;;;;;;5.67;1.87;;;;;;;21.53;32.44;101888.95;1676909;84;21076;-62
2021/09/08 14:08:27;;;;;;;12.63;2.85;;;;;;;21.56;32.43;101887.42;1678229;85;21101;-58
2021/09/08 14:11:05;;;;;;;5.40;2.15;;;;;;;21.55;31.78;101888.36;1682163;84;20984;-61
2021/09/08 14:13:34;;;;;;;10.58;1.95;;;;;;;21.52;32.05;101879.91;1668866;85;21076;-58
2021/09/08 14:16:28;;;;;;;;;;;;;;;21.55;32.37;101878.34;1680682;84;21156;-60
2021/09/08 14:18:55;;;;;;;9.23;2.20;;;;;;;21.59;31.96;101874.94;1678840;85;20636;-60
2021/09/08 14:21:36;;;;;;;11.93;2.20;;;;;;;21.55;32.04;101865.17;1670633;85;20998;-60
2021/09/08 14:24:04;;;;;;;17.57;2.67;;;;;;;21.56;32.45;101869.69;1648339;85;21098;-59
2021/09/08 14:26:31;;;;;;;5.90;2.30;;;;;;;21.57;32.71;101863.25;1648341;86;21295;-61
2021/09/08 14:31:48;;;;;;;13.18;5.35;;;;;;;21.51;31.19;101875.90;1673578;83;21045;-58
2021/09/08 14:34:18;;;;;;;21.45;3.77;;;;;;;21.50;31.34;101879.60;1666050;85;21133;-62
2021/09/08 14:36:45;;;;;;;5.55;2.20;;;;;;;21.44;31.64;101870.84;1674421;83;21037;-59
2021/09/08 14:39:14;;;;;;;8.65;2.20;;;;;;;21.45;31.47;101870.37;1675438;83;21831;-60
2021/09/08 14:41:41;;;;;;;16.35;2.50;;;;;;;21.50;31.60;101870.05;1670270;85;21092;-61
2021/09/08 14:44:09;;;;;;;10.08;2.35;;;;;;;21.57;31.39;101861.89;1676979;85;21164;-59
2021/09/08 14:46:36;;;;;;;8.00;2.10;;;;;;;21.64;31.13;101861.87;1678570;83;21736;-60
2021/09/08 14:49:04;;;;;;;15.63;3.05;;;;;;;21.70;30.38;101862.86;1653522;85;21092;-60
2021/09/08 14:54:06;;;;;;;11.63;2.05;;;;;;;21.72;30.41;101857.31;1702053;83;21099;-59
2021/09/08 14:56:33;;;;;;;8.83;2.05;;;;;;;21.71;30.50;101863.25;1705943;82;21553;-60
2021/09/08 14:59:01;;;;;;;5.03;1.87;;;;;;;21.75;30.35;101861.20;1706518;82;21676;-59
2021/09/08 15:01:28;;;;;;;3.92;2.10;;;;;;;21.76;30.19;101856.13;1708775;83;21027;-60
2021/09/08 15:03:57;;;;;;;3.62;2.15;;;;;;;21.78;29.81;101854.69;1704760;82;21045;-59
2021/09/08 15:06:26;;;;;;;6.12;2.10;;;;;;;21.80;29.39;101851.36;1706008;83;21068;-59
2021/09/08 15:09:22;;;;;;;4.53;1.72;;;;;;;21.78;29.23;101849.23;1688348;83;21088;-60
2021/09/08 15:11:49;;;;;;;6.22;2.10;;;;;;;21.78;29.28;101853.31;1708237;82;21401;-61
2021/09/08 15:14:21;;;;;;;8.58;2.22;;;;;;;21.78;29.47;101849.23;1703561;82;21517;-60
2021/09/08 15:16:54;;;;;;;6.62;1.90;;;;;;;21.80;29.38;101852.73;1695628;83;22455;-59
2021/09/08 15:19:22;;;;;;;5.90;1.87;;;;;;;21.82;29.48;101848.90;1711503;82;21149;-60
2021/09/08 15:21:53;;;;;;;7.00;1.87;;;;;;;21.84;29.65;101849.67;1685890;83;21534;-59
2021/09/08 15:24:21;;;;;;;4.45;2.20;;;;;;;21.85;29.80;101842.38;1705488;83;21102;-58
2021/09/08 15:27:10;;;;;;;4.03;2.05;;;;;;;21.86;29.88;101845.49;1687454;83;21484;-60